sensor_id;sensor_type;location;lat;lon;timestamp;pressure;altitude;pressure_sealevel;temperature;humidity
75788;BME280;64406;50.024;14.492;2023-03-11T00:00:37;95600.69;;;4.56;68.50
75788;BME280;64406;50.024;14.492;2023-03-11T00:03:22;95622.47;;;4.58;68.33
75788;BME280;64406;50.024;14.492;2023-03-11T00:05:50;95624.78;;;4.51;69.00
75788;BME280;64406;50.024;14.492;2023-03-11T00:08:19;95625.81;;;4.19;69.95
75788;BME280;64406;50.024;14.492;2023-03-11T00:10:47;95643.91;;;3.94;73.88
75788;BME280;64406;50.024;14.492;2023-03-11T00:13:15;95660.53;;;3.77;73.98
75788;BME280;64406;50.024;14.492;2023-03-11T00:15:44;95649.50;;;3.70;74.25
75788;BME280;64406;50.024;14.492;2023-03-11T00:18:10;95666.94;;;3.63;74.00
75788;BME280;64406;50.024;14.492;2023-03-11T00:20:41;95664.56;;;3.47;74.61
75788;BME280;64406;50.024;14.492;2023-03-11T00:23:10;95674.59;;;3.23;76.06
75788;BME280;64406;50.024;14.492;2023-03-11T00:25:38;95702.97;;;3.14;76.47
75788;BME280;64406;50.024;14.492;2023-03-11T00:28:05;95745.66;;;2.90;78.44
75788;BME280;64406;50.024;14.492;2023-03-11T00:30:32;95771.06;;;2.26;81.17
75788;BME280;64406;50.024;14.492;2023-03-11T00:32:59;95762.97;;;1.93;81.80
75788;BME280;64406;50.024;14.492;2023-03-11T00:35:28;95786.28;;;1.72;82.87
75788;BME280;64406;50.024;14.492;2023-03-11T00:37:58;95807.19;;;1.50;80.45
75788;BME280;64406;50.024;14.492;2023-03-11T00:40:25;95797.38;;;1.21;81.78
75788;BME280;64406;50.024;14.492;2023-03-11T00:42:52;95814.06;;;0.93;82.01
75788;BME280;64406;50.024;14.492;2023-03-11T00:45:17;95837.19;;;0.82;83.47
75788;BME280;64406;50.024;14.492;2023-03-11T00:47:43;95829.56;;;0.70;83.75
75788;BME280;64406;50.024;14.492;2023-03-11T00:50:14;95791.78;;;0.54;83.73
75788;BME280;64406;50.024;14.492;2023-03-11T00:52:42;95798.41;;;0.52;84.02
75788;BME280;64406;50.024;14.492;2023-03-11T00:55:09;95814.28;;;0.57;83.48
75788;BME280;64406;50.024;14.492;2023-03-11T00:57:38;95809.78;;;0.58;83.20
75788;BME280;64406;50.024;14.492;2023-03-11T01:00:05;95825.16;;;0.56;82.08
75788;BME280;64406;50.024;14.492;2023-03-11T01:02:36;95839.16;;;0.61;82.07
75788;BME280;64406;50.024;14.492;2023-03-11T01:05:02;95827.50;;;0.62;82.44
75788;BME280;64406;50.024;14.492;2023-03-11T01:07:28;95822.00;;;0.53;82.73
75788;BME280;64406;50.024;14.492;2023-03-11T01:09:53;95832.50;;;0.69;80.69
75788;BME280;64406;50.024;14.492;2023-03-11T01:12:19;95834.41;;;0.58;80.75
75788;BME280;64406;50.024;14.492;2023-03-11T01:14:45;95852.88;;;0.73;80.09
75788;BME280;64406;50.024;14.492;2023-03-11T01:17:10;95835.44;;;0.62;79.44
75788;BME280;64406;50.024;14.492;2023-03-11T01:19:36;95838.00;;;0.77;77.08
75788;BME280;64406;50.024;14.492;2023-03-11T01:22:01;95861.78;;;0.93;76.74
75788;BME280;64406;50.024;14.492;2023-03-11T01:24:28;95847.44;;;0.94;75.73
75788;BME280;64406;50.024;14.492;2023-03-11T01:26:53;95856.38;;;1.03;74.65
75788;BME280;64406;50.024;14.492;2023-03-11T01:29:19;95873.28;;;1.12;74.59
75788;BME280;64406;50.024;14.492;2023-03-11T01:31:44;95845.78;;;1.03;73.84
75788;BME280;64406;50.024;14.492;2023-03-11T01:34:10;95864.81;;;1.10;72.44
75788;BME280;64406;50.024;14.492;2023-03-11T01:36:36;95888.06;;;1.23;71.03
75788;BME280;64406;50.024;14.492;2023-03-11T01:39:04;95863.84;;;1.35;69.05
75788;BME280;64406;50.024;14.492;2023-03-11T01:41:29;95879.28;;;1.28;70.45
75788;BME280;64406;50.024;14.492;2023-03-11T01:43:55;95875.88;;;1.22;69.89
75788;BME280;64406;50.024;14.492;2023-03-11T01:46:22;95893.81;;;1.30;69.56
75788;BME280;64406;50.024;14.492;2023-03-11T01:48:54;95890.81;;;1.42;67.53
75788;BME280;64406;50.024;14.492;2023-03-11T01:51:37;95879.75;;;1.35;67.57
75788;BME280;64406;50.024;14.492;2023-03-11T01:54:11;95891.47;;;1.29;67.78
75788;BME280;64406;50.024;14.492;2023-03-11T01:56:38;95907.31;;;1.39;67.03
75788;BME280;64406;50.024;14.492;2023-03-11T01:59:07;95882.59;;;1.44;66.21
75788;BME280;64406;50.024;14.492;2023-03-11T02:01:42;95895.72;;;1.25;67.51
75788;BME280;64406;50.024;14.492;2023-03-11T02:04:11;95885.34;;;1.33;67.73
75788;BME280;64406;50.024;14.492;2023-03-11T02:06:38;95886.44;;;1.27;67.51
75788;BME280;64406;50.024;14.492;2023-03-11T02:09:04;95902.84;;;1.29;67.80
75788;BME280;64406;50.024;14.492;2023-03-11T02:11:30;95903.41;;;1.26;67.80
75788;BME280;64406;50.024;14.492;2023-03-11T02:13:59;95914.06;;;1.21;69.17
75788;BME280;64406;50.024;14.492;2023-03-11T02:16:25;95915.91;;;1.21;68.70
75788;BME280;64406;50.024;14.492;2023-03-11T02:18:51;95926.25;;;1.22;68.86
75788;BME280;64406;50.024;14.492;2023-03-11T02:21:31;95934.19;;;1.22;68.78
75788;BME280;64406;50.024;14.492;2023-03-11T02:29:10;95947.25;;;1.14;69.39
75788;BME280;64406;50.024;14.492;2023-03-11T02:31:37;95944.91;;;1.07;69.75
75788;BME280;64406;50.024;14.492;2023-03-11T02:34:08;95943.41;;;0.86;70.00
75788;BME280;64406;50.024;14.492;2023-03-11T02:36:40;95959.56;;;0.94;71.07
75788;BME280;64406;50.024;14.492;2023-03-11T02:39:08;95962.78;;;0.86;71.05
75788;BME280;64406;50.024;14.492;2023-03-11T02:41:37;95945.81;;;0.82;71.45
75788;BME280;64406;50.024;14.492;2023-03-11T02:44:07;95976.06;;;0.71;71.67
75788;BME280;64406;50.024;14.492;2023-03-11T02:46:36;95961.75;;;0.72;71.67
75788;BME280;64406;50.024;14.492;2023-03-11T02:49:03;95955.72;;;0.66;70.90
75788;BME280;64406;50.024;14.492;2023-03-11T02:51:31;95968.41;;;0.69;70.51
75788;BME280;64406;50.024;14.492;2023-03-11T02:54:00;95971.56;;;0.71;71.92
75788;BME280;64406;50.024;14.492;2023-03-11T02:56:27;95958.09;;;0.63;72.05
75788;BME280;64406;50.024;14.492;2023-03-11T02:58:53;95948.34;;;0.53;71.39
75788;BME280;64406;50.024;14.492;2023-03-11T03:01:18;95972.91;;;0.69;71.35
75788;BME280;64406;50.024;14.492;2023-03-11T03:03:44;95960.75;;;0.58;71.37
75788;BME280;64406;50.024;14.492;2023-03-11T03:06:10;95951.50;;;0.50;71.84
75788;BME280;64406;50.024;14.492;2023-03-11T03:08:36;95987.50;;;0.61;71.92
75788;BME280;64406;50.024;14.492;2023-03-11T03:11:02;95980.63;;;0.55;71.30
75788;BME280;64406;50.024;14.492;2023-03-11T03:13:28;95995.72;;;0.60;72.72
75788;BME280;64406;50.024;14.492;2023-03-11T03:15:54;96001.28;;;0.58;72.75
75788;BME280;64406;50.024;14.492;2023-03-11T03:18:20;95978.56;;;0.47;72.27
75788;BME280;64406;50.024;14.492;2023-03-11T03:20:46;95997.06;;;0.52;71.73
75788;BME280;64406;50.024;14.492;2023-03-11T03:23:12;95993.88;;;0.50;72.30
75788;BME280;64406;50.024;14.492;2023-03-11T03:25:41;96006.63;;;0.48;71.26
75788;BME280;64406;50.024;14.492;2023-03-11T03:28:07;96010.06;;;0.53;71.57
75788;BME280;64406;50.024;14.492;2023-03-11T03:30:32;96029.34;;;0.59;70.76
75788;BME280;64406;50.024;14.492;2023-03-11T03:32:58;96015.34;;;0.53;70.89
75788;BME280;64406;50.024;14.492;2023-03-11T03:35:24;96034.13;;;0.57;71.00
75788;BME280;64406;50.024;14.492;2023-03-11T03:37:49;96016.13;;;0.54;70.06
75788;BME280;64406;50.024;14.492;2023-03-11T03:40:15;96023.03;;;0.55;69.98
75788;BME280;64406;50.024;14.492;2023-03-11T03:42:41;96052.16;;;0.55;69.86
75788;BME280;64406;50.024;14.492;2023-03-11T03:45:07;96029.34;;;0.59;69.40
75788;BME280;64406;50.024;14.492;2023-03-11T03:47:36;96042.34;;;0.56;69.12
75788;BME280;64406;50.024;14.492;2023-03-11T03:50:04;96048.44;;;0.61;68.80
75788;BME280;64406;50.024;14.492;2023-03-11T03:52:31;96055.84;;;0.59;68.95
75788;BME280;64406;50.024;14.492;2023-03-11T03:54:57;96056.66;;;0.49;68.70
75788;BME280;64406;50.024;14.492;2023-03-11T03:57:22;96061.69;;;0.51;68.39
75788;BME280;64406;50.024;14.492;2023-03-11T03:59:48;96083.16;;;0.60;67.69
75788;BME280;64406;50.024;14.492;2023-03-11T04:02:14;96088.72;;;0.53;66.75
75788;BME280;64406;50.024;14.492;2023-03-11T04:04:39;96070.94;;;0.59;67.53
75788;BME280;64406;50.024;14.492;2023-03-11T04:07:05;96078.88;;;0.59;67.75
75788;BME280;64406;50.024;14.492;2023-03-11T04:09:32;96103.00;;;0.57;67.10
75788;BME280;64406;50.024;14.492;2023-03-11T04:11:58;96082.88;;;0.51;66.54
75788;BME280;64406;50.024;14.492;2023-03-11T04:14:24;96111.22;;;0.50;66.65
75788;BME280;64406;50.024;14.492;2023-03-11T04:16:50;96092.69;;;0.45;66.58
75788;BME280;64406;50.024;14.492;2023-03-11T04:19:16;96132.69;;;0.54;66.78
75788;BME280;64406;50.024;14.492;2023-03-11T04:21:42;96110.69;;;0.53;66.15
75788;BME280;64406;50.024;14.492;2023-03-11T04:24:09;96122.09;;;0.49;66.92
75788;BME280;64406;50.024;14.492;2023-03-11T04:26:36;96124.75;;;0.49;67.26
75788;BME280;64406;50.024;14.492;2023-03-11T04:29:02;96146.44;;;0.46;66.76
75788;BME280;64406;50.024;14.492;2023-03-11T04:31:27;96132.16;;;0.42;67.06
75788;BME280;64406;50.024;14.492;2023-03-11T04:33:53;96137.97;;;0.39;66.68
75788;BME280;64406;50.024;14.492;2023-03-11T04:36:19;96141.97;;;0.41;66.93
75788;BME280;64406;50.024;14.492;2023-03-11T04:38:44;96142.75;;;0.42;66.56
75788;BME280;64406;50.024;14.492;2023-03-11T04:41:11;96143.28;;;0.34;66.43
75788;BME280;64406;50.024;14.492;2023-03-11T04:43:37;96176.66;;;0.35;66.52
75788;BME280;64406;50.024;14.492;2023-03-11T04:46:03;96181.16;;;0.34;66.84
75788;BME280;64406;50.024;14.492;2023-03-11T04:48:29;96172.66;;;0.32;66.53
75788;BME280;64406;50.024;14.492;2023-03-11T04:50:55;96167.63;;;0.25;67.01
75788;BME280;64406;50.024;14.492;2023-03-11T04:53:21;96187.47;;;0.23;66.71
75788;BME280;64406;50.024;14.492;2023-03-11T04:55:47;96189.06;;;0.19;66.10
75788;BME280;64406;50.024;14.492;2023-03-11T04:58:13;96186.97;;;0.21;66.89
75788;BME280;64406;50.024;14.492;2023-03-11T05:00:39;96185.34;;;0.15;66.33
75788;BME280;64406;50.024;14.492;2023-03-11T05:03:05;96206.81;;;0.13;66.85
75788;BME280;64406;50.024;14.492;2023-03-11T05:05:31;96217.38;;;0.18;66.73
75788;BME280;64406;50.024;14.492;2023-03-11T05:07:56;96201.75;;;0.07;66.86
75788;BME280;64406;50.024;14.492;2023-03-11T05:10:22;96222.16;;;0.16;66.90
75788;BME280;64406;50.024;14.492;2023-03-11T05:12:51;96247.00;;;0.05;66.96
75788;BME280;64406;50.024;14.492;2023-03-11T05:15:17;96239.59;;;0.07;67.14
75788;BME280;64406;50.024;14.492;2023-03-11T05:17:43;96231.13;;;0.00;67.39
75788;BME280;64406;50.024;14.492;2023-03-11T05:20:09;96232.63;;;-0.14;67.75
75788;BME280;64406;50.024;14.492;2023-03-11T05:22:35;96267.84;;;-0.09;68.90
75788;BME280;64406;50.024;14.492;2023-03-11T05:25:01;96259.13;;;-0.09;69.51
75788;BME280;64406;50.024;14.492;2023-03-11T05:27:27;96287.16;;;-0.13;69.79
75788;BME280;64406;50.024;14.492;2023-03-11T05:29:53;96274.94;;;-0.24;70.28
75788;BME280;64406;50.024;14.492;2023-03-11T05:32:18;96293.72;;;-0.21;70.87
75788;BME280;64406;50.024;14.492;2023-03-11T05:34:45;96281.78;;;-0.29;69.63
75788;BME280;64406;50.024;14.492;2023-03-11T05:37:11;96288.44;;;-0.26;70.38
75788;BME280;64406;50.024;14.492;2023-03-11T05:39:39;96311.69;;;-0.28;70.03
75788;BME280;64406;50.024;14.492;2023-03-11T05:42:06;96307.97;;;-0.32;70.58
75788;BME280;64406;50.024;14.492;2023-03-11T05:44:32;96293.13;;;-0.33;70.19
75788;BME280;64406;50.024;14.492;2023-03-11T05:46:59;96305.56;;;-0.39;71.31
75788;BME280;64406;50.024;14.492;2023-03-11T05:49:25;96306.09;;;-0.37;70.21
75788;BME280;64406;50.024;14.492;2023-03-11T05:51:50;96302.09;;;-0.44;70.74
75788;BME280;64406;50.024;14.492;2023-03-11T05:54:16;96320.34;;;-0.43;70.22
75788;BME280;64406;50.024;14.492;2023-03-11T05:56:44;96337.88;;;-0.32;69.78
75788;BME280;64406;50.024;14.492;2023-03-11T05:59:12;96335.94;;;-0.41;69.55
75788;BME280;64406;50.024;14.492;2023-03-11T06:01:39;96320.63;;;-0.39;69.60
75788;BME280;64406;50.024;14.492;2023-03-11T06:04:05;96379.63;;;-0.34;68.89
75788;BME280;64406;50.024;14.492;2023-03-11T06:06:31;96347.31;;;-0.41;70.74
75788;BME280;64406;50.024;14.492;2023-03-11T06:08:59;96368.78;;;-0.37;70.08
75788;BME280;64406;50.024;14.492;2023-03-11T06:11:24;96366.09;;;-0.42;70.07
75788;BME280;64406;50.024;14.492;2023-03-11T06:13:52;96361.56;;;-0.47;70.34
75788;BME280;64406;50.024;14.492;2023-03-11T06:16:22;96395.50;;;-0.34;69.80
75788;BME280;64406;50.024;14.492;2023-03-11T06:18:48;96393.94;;;-0.30;69.22
75788;BME280;64406;50.024;14.492;2023-03-11T06:21:16;96393.72;;;-0.23;69.38
75788;BME280;64406;50.024;14.492;2023-03-11T06:23:42;96393.72;;;-0.23;69.87
75788;BME280;64406;50.024;14.492;2023-03-11T06:26:09;96445.06;;;-0.24;69.66
75788;BME280;64406;50.024;14.492;2023-03-11T06:28:37;96414.31;;;-0.30;69.65
75788;BME280;64406;50.024;14.492;2023-03-11T06:31:11;96430.94;;;-0.35;69.38
75788;BME280;64406;50.024;14.492;2023-03-11T06:33:40;96417.72;;;-0.35;69.73
75788;BME280;64406;50.024;14.492;2023-03-11T06:36:06;96426.16;;;-0.38;69.55
75788;BME280;64406;50.024;14.492;2023-03-11T06:38:32;96447.13;;;-0.31;69.17
75788;BME280;64406;50.024;14.492;2023-03-11T06:41:02;96466.75;;;-0.22;68.93
75788;BME280;64406;50.024;14.492;2023-03-11T06:43:29;96452.47;;;-0.26;68.80
75788;BME280;64406;50.024;14.492;2023-03-11T06:45:56;96486.13;;;-0.16;68.38
75788;BME280;64406;50.024;14.492;2023-03-11T06:48:22;96492.03;;;-0.04;68.72
75788;BME280;64406;50.024;14.492;2023-03-11T06:50:58;96499.44;;;-0.01;67.78
75788;BME280;64406;50.024;14.492;2023-03-11T06:53:27;96497.91;;;0.03;67.99
75788;BME280;64406;50.024;14.492;2023-03-11T06:56:09;96520.19;;;0.07;68.23
75788;BME280;64406;50.024;14.492;2023-03-11T06:58:37;96506.94;;;0.07;67.57
75788;BME280;64406;50.024;14.492;2023-03-11T07:01:05;96517.31;;;0.14;67.01
75788;BME280;64406;50.024;14.492;2023-03-11T07:03:32;96515.16;;;0.11;66.00
75788;BME280;64406;50.024;14.492;2023-03-11T07:05:58;96531.72;;;0.28;65.50
75788;BME280;64406;50.024;14.492;2023-03-11T07:08:25;96538.13;;;0.37;65.83
75788;BME280;64406;50.024;14.492;2023-03-11T07:11:05;96546.03;;;0.32;64.92
75788;BME280;64406;50.024;14.492;2023-03-11T07:13:31;96552.63;;;0.30;65.92
75788;BME280;64406;50.024;14.492;2023-03-11T07:16:40;96551.03;;;0.29;65.38
75788;BME280;64406;50.024;14.492;2023-03-11T07:19:00;96560.56;;;0.30;64.14
75788;BME280;64406;50.024;14.492;2023-03-11T07:21:29;96570.06;;;0.25;64.33
75788;BME280;64406;50.024;14.492;2023-03-11T07:23:58;96570.41;;;0.34;64.57
75788;BME280;64406;50.024;14.492;2023-03-11T07:26:25;96579.63;;;0.26;64.49
75788;BME280;64406;50.024;14.492;2023-03-11T07:28:56;96576.47;;;0.30;64.27
75788;BME280;64406;50.024;14.492;2023-03-11T07:31:29;96590.72;;;0.23;64.26
75788;BME280;64406;50.024;14.492;2023-03-11T07:33:57;96610.59;;;0.26;64.72
75788;BME280;64406;50.024;14.492;2023-03-11T07:36:25;96603.63;;;0.15;63.79
75788;BME280;64406;50.024;14.492;2023-03-11T07:38:57;96628.78;;;0.17;64.92
75788;BME280;64406;50.024;14.492;2023-03-11T07:41:24;96612.38;;;0.15;65.23
75788;BME280;64406;50.024;14.492;2023-03-11T07:43:53;96620.63;;;0.24;65.51
75788;BME280;64406;50.024;14.492;2023-03-11T07:46:19;96615.09;;;0.25;65.19
75788;BME280;64406;50.024;14.492;2023-03-11T07:48:48;96624.34;;;0.23;64.80
75788;BME280;64406;50.024;14.492;2023-03-11T07:51:22;96635.03;;;0.33;65.06
75788;BME280;64406;50.024;14.492;2023-03-11T07:53:51;96629.38;;;0.24;64.93
75788;BME280;64406;50.024;14.492;2023-03-11T07:56:20;96643.69;;;0.23;64.77
75788;BME280;64406;50.024;14.492;2023-03-11T07:58:47;96635.78;;;0.29;64.98
75788;BME280;64406;50.024;14.492;2023-03-11T08:01:18;96645.84;;;0.26;65.86
75788;BME280;64406;50.024;14.492;2023-03-11T08:03:47;96662.25;;;0.29;65.18
75788;BME280;64406;50.024;14.492;2023-03-11T08:06:22;96650.09;;;0.33;65.74
75788;BME280;64406;50.024;14.492;2023-03-11T08:08:50;96647.28;;;0.12;65.95
75788;BME280;64406;50.024;14.492;2023-03-11T08:11:17;96664.53;;;0.15;66.14
75788;BME280;64406;50.024;14.492;2023-03-11T08:13:48;96673.72;;;0.07;65.59
75788;BME280;64406;50.024;14.492;2023-03-11T08:16:17;96705.75;;;0.11;65.42
75788;BME280;64406;50.024;14.492;2023-03-11T08:18:45;96689.44;;;0.19;65.79
75788;BME280;64406;50.024;14.492;2023-03-11T08:21:22;96692.34;;;0.17;66.01
75788;BME280;64406;50.024;14.492;2023-03-11T08:23:49;96703.84;;;0.28;65.75
75788;BME280;64406;50.024;14.492;2023-03-11T08:26:17;96717.94;;;0.34;65.95
75788;BME280;64406;50.024;14.492;2023-03-11T08:28:46;96688.34;;;0.42;65.61
75788;BME280;64406;50.024;14.492;2023-03-11T08:31:17;96697.94;;;0.48;65.80
75788;BME280;64406;50.024;14.492;2023-03-11T08:33:44;96721.97;;;0.41;65.42
75788;BME280;64406;50.024;14.492;2023-03-11T08:36:11;96701.06;;;0.45;65.26
75788;BME280;64406;50.024;14.492;2023-03-11T08:38:36;96708.06;;;0.56;65.60
75788;BME280;64406;50.024;14.492;2023-03-11T08:41:02;96717.69;;;0.67;65.27
75788;BME280;64406;50.024;14.492;2023-03-11T08:43:28;96704.09;;;0.59;65.39
75788;BME280;64406;50.024;14.492;2023-03-11T08:45:54;96717.81;;;0.82;65.63
75788;BME280;64406;50.024;14.492;2023-03-11T08:48:21;96728.88;;;0.74;64.84
75788;BME280;64406;50.024;14.492;2023-03-11T08:50:47;96743.50;;;0.50;65.09
75788;BME280;64406;50.024;14.492;2023-03-11T08:53:13;96743.28;;;0.57;65.14
75788;BME280;64406;50.024;14.492;2023-03-11T08:55:39;96744.72;;;0.69;64.96
75788;BME280;64406;50.024;14.492;2023-03-11T08:58:05;96744.75;;;0.42;65.29
75788;BME280;64406;50.024;14.492;2023-03-11T09:00:32;96775.28;;;0.50;64.64
75788;BME280;64406;50.024;14.492;2023-03-11T09:03:01;96768.00;;;0.62;65.03
75788;BME280;64406;50.024;14.492;2023-03-11T09:05:28;96765.81;;;0.59;64.21
75788;BME280;64406;50.024;14.492;2023-03-11T09:07:54;96771.50;;;0.68;64.28
75788;BME280;64406;50.024;14.492;2023-03-11T09:10:19;96767.84;;;0.79;64.04
75788;BME280;64406;50.024;14.492;2023-03-11T09:12:47;96768.72;;;0.85;62.96
75788;BME280;64406;50.024;14.492;2023-03-11T09:15:13;96786.94;;;0.76;63.03
75788;BME280;64406;50.024;14.492;2023-03-11T09:17:42;96792.47;;;1.01;62.25
75788;BME280;64406;50.024;14.492;2023-03-11T09:20:13;96800.88;;;0.93;62.41
75788;BME280;64406;50.024;14.492;2023-03-11T09:22:42;96811.28;;;0.73;62.16
75788;BME280;64406;50.024;14.492;2023-03-11T09:25:11;96814.06;;;0.88;62.60
75788;BME280;64406;50.024;14.492;2023-03-11T09:27:37;96825.34;;;0.73;61.98
75788;BME280;64406;50.024;14.492;2023-03-11T09:30:05;96831.06;;;0.65;62.46
75788;BME280;64406;50.024;14.492;2023-03-11T09:32:31;96832.56;;;0.56;63.31
75788;BME280;64406;50.024;14.492;2023-03-11T09:34:56;96842.13;;;0.57;62.72
75788;BME280;64406;50.024;14.492;2023-03-11T09:37:22;96834.69;;;0.54;63.11
75788;BME280;64406;50.024;14.492;2023-03-11T09:39:48;96836.47;;;0.48;62.49
75788;BME280;64406;50.024;14.492;2023-03-11T09:42:37;96848.22;;;0.58;63.43
75788;BME280;64406;50.024;14.492;2023-03-11T09:45:20;96861.97;;;0.54;63.58
75788;BME280;64406;50.024;14.492;2023-03-11T09:51:19;96855.06;;;0.32;65.58
75788;BME280;64406;50.024;14.492;2023-03-11T09:53:38;96876.81;;;0.34;65.59
75788;BME280;64406;50.024;14.492;2023-03-11T09:56:08;96877.72;;;0.44;65.53
75788;BME280;64406;50.024;14.492;2023-03-11T09:58:47;96884.09;;;0.43;64.54
75788;BME280;64406;50.024;14.492;2023-03-11T10:01:50;96885.06;;;0.59;65.77
75788;BME280;64406;50.024;14.492;2023-03-11T10:04:26;96871.06;;;0.64;64.68
75788;BME280;64406;50.024;14.492;2023-03-11T10:06:54;96868.94;;;0.88;63.83
75788;BME280;64406;50.024;14.492;2023-03-11T10:09:39;96894.25;;;1.00;63.14
75788;BME280;64406;50.024;14.492;2023-03-11T10:15:13;96896.66;;;1.02;59.15
75788;BME280;64406;50.024;14.492;2023-03-11T10:20:26;96898.78;;;1.05;60.19
75788;BME280;64406;50.024;14.492;2023-03-11T10:25:24;96916.94;;;1.18;58.50
75788;BME280;64406;50.024;14.492;2023-03-11T10:27:54;96934.69;;;1.13;58.82
75788;BME280;64406;50.024;14.492;2023-03-11T10:30:30;96937.28;;;1.07;58.96
75788;BME280;64406;50.024;14.492;2023-03-11T10:33:45;96923.41;;;1.27;58.35
75788;BME280;64406;50.024;14.492;2023-03-11T10:36:18;96930.81;;;1.25;59.03
75788;BME280;64406;50.024;14.492;2023-03-11T10:38:50;96920.78;;;1.27;59.07
75788;BME280;64406;50.024;14.492;2023-03-11T10:41:27;96940.63;;;1.25;59.25
75788;BME280;64406;50.024;14.492;2023-03-11T10:44:09;96923.38;;;1.22;59.06
75788;BME280;64406;50.024;14.492;2023-03-11T10:46:37;96939.16;;;1.12;59.98
75788;BME280;64406;50.024;14.492;2023-03-11T10:49:10;96940.59;;;1.20;59.04
75788;BME280;64406;50.024;14.492;2023-03-11T10:51:39;96935.75;;;0.90;59.36
75788;BME280;64406;50.024;14.492;2023-03-11T10:54:06;96939.06;;;1.02;58.27
75788;BME280;64406;50.024;14.492;2023-03-11T10:56:39;96944.06;;;1.25;57.62
75788;BME280;64406;50.024;14.492;2023-03-11T10:59:22;96946.63;;;1.42;55.87
75788;BME280;64406;50.024;14.492;2023-03-11T11:01:57;96960.03;;;1.57;56.25
75788;BME280;64406;50.024;14.492;2023-03-11T11:04:34;96956.13;;;1.38;56.01
75788;BME280;64406;50.024;14.492;2023-03-11T11:07:31;96953.47;;;1.11;57.40
75788;BME280;64406;50.024;14.492;2023-03-11T11:10:19;96965.94;;;1.11;58.32
75788;BME280;64406;50.024;14.492;2023-03-11T11:12:57;96962.09;;;1.23;59.01
75788;BME280;64406;50.024;14.492;2023-03-11T11:17:58;96991.06;;;1.03;59.77
75788;BME280;64406;50.024;14.492;2023-03-11T11:20:25;96991.88;;;0.81;60.74
75788;BME280;64406;50.024;14.492;2023-03-11T11:22:54;96985.94;;;0.96;60.64
75788;BME280;64406;50.024;14.492;2023-03-11T11:28:19;96975.91;;;1.25;60.11
75788;BME280;64406;50.024;14.492;2023-03-11T11:30:53;96976.72;;;1.26;60.46
75788;BME280;64406;50.024;14.492;2023-03-11T11:33:30;96972.81;;;1.06;60.60
75788;BME280;64406;50.024;14.492;2023-03-11T11:36:02;96968.78;;;1.04;61.11
75788;BME280;64406;50.024;14.492;2023-03-11T11:38:30;96976.56;;;1.38;60.46
75788;BME280;64406;50.024;14.492;2023-03-11T11:41:00;96984.47;;;1.59;59.74
75788;BME280;64406;50.024;14.492;2023-03-11T11:46:20;96989.63;;;1.44;59.02
75788;BME280;64406;50.024;14.492;2023-03-11T11:48:55;96988.63;;;1.50;58.35
75788;BME280;64406;50.024;14.492;2023-03-11T11:51:32;96994.38;;;1.42;59.06
75788;BME280;64406;50.024;14.492;2023-03-11T11:54:14;96996.56;;;1.23;58.49
75788;BME280;64406;50.024;14.492;2023-03-11T11:56:42;96997.31;;;1.19;58.28
75788;BME280;64406;50.024;14.492;2023-03-11T11:59:20;96988.69;;;1.28;58.64
75788;BME280;64406;50.024;14.492;2023-03-11T12:01:57;96985.06;;;1.13;57.65
75788;BME280;64406;50.024;14.492;2023-03-11T12:04:47;97017.25;;;1.21;58.21
75788;BME280;64406;50.024;14.492;2023-03-11T12:17:51;97021.28;;;0.80;60.32
75788;BME280;64406;50.024;14.492;2023-03-11T12:20:36;97024.81;;;0.69;60.75
75788;BME280;64406;50.024;14.492;2023-03-11T12:25:44;97033.47;;;0.42;65.91
75788;BME280;64406;50.024;14.492;2023-03-11T12:30:51;97032.13;;;0.40;65.45
75788;BME280;64406;50.024;14.492;2023-03-11T12:33:34;97024.25;;;0.28;65.01
75788;BME280;64406;50.024;14.492;2023-03-11T12:36:03;97036.03;;;0.37;65.36
75788;BME280;64406;50.024;14.492;2023-03-11T12:38:39;97045.13;;;0.41;64.07
75788;BME280;64406;50.024;14.492;2023-03-11T12:46:12;97055.53;;;0.48;62.00
75788;BME280;64406;50.024;14.492;2023-03-11T12:48:49;97052.72;;;0.54;62.35
75788;BME280;64406;50.024;14.492;2023-03-11T12:53:51;97043.13;;;0.92;60.67
75788;BME280;64406;50.024;14.492;2023-03-11T13:01:46;97060.31;;;1.28;59.05
75788;BME280;64406;50.024;14.492;2023-03-11T13:04:19;97062.28;;;0.94;59.25
75788;BME280;64406;50.024;14.492;2023-03-11T13:09:25;97054.25;;;1.11;60.10
75788;BME280;64406;50.024;14.492;2023-03-11T13:11:51;97066.22;;;1.14;58.88
75788;BME280;64406;50.024;14.492;2023-03-11T13:14:32;97070.31;;;0.99;58.98
75788;BME280;64406;50.024;14.492;2023-03-11T13:19:48;97075.38;;;0.84;60.03
75788;BME280;64406;50.024;14.492;2023-03-11T13:22:42;97076.13;;;0.79;60.32
75788;BME280;64406;50.024;14.492;2023-03-11T13:25:28;97080.75;;;0.89;58.97
75788;BME280;64406;50.024;14.492;2023-03-11T13:31:13;97075.81;;;1.90;57.07
75788;BME280;64406;50.024;14.492;2023-03-11T13:33:47;97075.22;;;2.48;55.48
75788;BME280;64406;50.024;14.492;2023-03-11T13:39:42;97081.88;;;1.86;57.55
75788;BME280;64406;50.024;14.492;2023-03-11T13:41:58;97082.88;;;1.80;57.60
75788;BME280;64406;50.024;14.492;2023-03-11T13:44:38;97083.28;;;1.67;56.11
75788;BME280;64406;50.024;14.492;2023-03-11T13:47:15;97091.84;;;1.52;56.56
75788;BME280;64406;50.024;14.492;2023-03-11T13:50:02;97088.63;;;1.23;55.63
75788;BME280;64406;50.024;14.492;2023-03-11T13:52:41;97098.94;;;1.19;55.88
75788;BME280;64406;50.024;14.492;2023-03-11T13:57:52;97114.94;;;1.07;56.53
75788;BME280;64406;50.024;14.492;2023-03-11T14:00:27;97105.94;;;1.08;57.20
75788;BME280;64406;50.024;14.492;2023-03-11T14:02:55;97119.44;;;1.07;57.65
75788;BME280;64406;50.024;14.492;2023-03-11T14:05:31;97120.00;;;1.31;57.81
75788;BME280;64406;50.024;14.492;2023-03-11T14:13:22;97133.09;;;1.16;58.28
75788;BME280;64406;50.024;14.492;2023-03-11T14:15:59;97148.84;;;1.05;58.87
75788;BME280;64406;50.024;14.492;2023-03-11T14:20:55;97141.03;;;1.16;59.11
75788;BME280;64406;50.024;14.492;2023-03-11T14:23:25;97123.63;;;1.03;59.10
75788;BME280;64406;50.024;14.492;2023-03-11T14:26:07;97145.56;;;0.98;58.13
75788;BME280;64406;50.024;14.492;2023-03-11T14:28:36;97146.78;;;1.07;59.40